createdAt,value
2018-03-18T00:00:56.966Z,0
2018-03-18T00:01:57.205Z,0
2018-03-18T00:02:57.180Z,0
2018-03-18T00:03:56.899Z,0
2018-03-18T00:04:57.144Z,0
2018-03-18T00:05:57.118Z,0
2018-03-18T00:06:57.096Z,0
2018-03-18T00:07:57.071Z,0
2018-03-18T00:08:56.277Z,0
2018-03-18T00:09:56.511Z,0
2018-03-18T00:10:57.012Z,0
2018-03-18T00:11:56.722Z,0
2018-03-18T00:12:56.965Z,0
2018-03-18T00:13:56.697Z,0
2018-03-18T00:14:56.665Z,0
2018-03-18T00:15:56.900Z,0
2018-03-18T00:16:56.627Z,0
2018-03-18T00:17:56.859Z,0
2018-03-18T00:18:56.574Z,0
2018-03-18T00:19:56.544Z,0
2018-03-18T00:20:56.272Z,0
2018-03-18T00:21:56.500Z,0
2018-03-18T00:22:56.229Z,0
2018-03-18T00:23:56.203Z,0
2018-03-18T00:24:56.442Z,0
2018-03-18T00:25:56.420Z,0
2018-03-18T00:26:56.659Z,0
2018-03-18T00:27:56.635Z,0
2018-03-18T00:28:56.610Z,0
2018-03-18T00:29:56.594Z,0
2018-03-18T00:30:56.566Z,0
2018-03-18T00:31:56.543Z,0
2018-03-18T00:32:56.267Z,0
2018-03-18T00:33:56.251Z,0
2018-03-18T00:34:56.482Z,0
2018-03-18T00:35:56.465Z,0
2018-03-18T00:36:56.185Z,0
2018-03-18T00:37:56.425Z,0
2018-03-18T00:38:56.136Z,0
2018-03-18T00:39:56.121Z,0
2018-03-18T00:40:56.350Z,0
2018-03-18T00:41:55.552Z,0
2018-03-18T00:42:56.050Z,0
2018-03-18T00:43:56.030Z,0
2018-03-18T00:44:56.258Z,0
2018-03-18T00:45:56.256Z,0
2018-03-18T00:46:55.964Z,0
2018-03-18T00:47:55.940Z,0
2018-03-18T00:48:55.660Z,0
2018-03-18T00:49:56.154Z,0
2018-03-18T00:50:56.126Z,0
2018-03-18T00:51:55.841Z,0
2018-03-18T00:52:56.087Z,0
2018-03-18T00:53:56.069Z,0
2018-03-18T00:54:55.525Z,0
2018-03-18T00:55:56.018Z,0
2018-03-18T00:56:55.225Z,0
2018-03-18T00:57:55.458Z,0
2018-03-18T00:58:57.103Z,0
2018-03-18T00:59:55.668Z,0
2018-03-18T01:00:55.644Z,0
2018-03-18T01:01:55.624Z,0
2018-03-18T01:02:55.863Z,0
2018-03-18T01:03:55.576Z,0
2018-03-18T01:04:55.814Z,0
2018-03-18T01:05:55.546Z,0
2018-03-18T01:06:55.255Z,0
2018-03-18T01:07:55.232Z,0
2018-03-18T01:08:55.470Z,0
2018-03-18T01:09:55.460Z,0
2018-03-18T01:10:55.684Z,0
2018-03-18T01:11:55.660Z,0
2018-03-18T01:12:55.380Z,0
2018-03-18T01:13:55.359Z,0
2018-03-18T01:14:55.599Z,0
2018-03-18T01:15:55.317Z,0
2018-03-18T01:16:55.294Z,0
2018-03-18T01:17:55.272Z,0
2018-03-18T01:18:55.251Z,0
2018-03-18T01:19:54.714Z,0
2018-03-18T01:20:55.461Z,0
2018-03-18T01:21:55.450Z,0
2018-03-18T01:22:55.420Z,0
2018-03-18T01:23:55.141Z,0
2018-03-18T01:24:55.124Z,0
2018-03-18T01:25:55.359Z,0
2018-03-18T01:26:55.331Z,0
2018-03-18T01:27:55.314Z,0
2018-03-18T01:28:55.042Z,0
2018-03-18T01:29:55.007Z,0
2018-03-18T01:30:55.293Z,0
2018-03-18T01:31:54.968Z,0
2018-03-18T01:32:55.204Z,0
2018-03-18T01:33:55.182Z,0
2018-03-18T01:34:55.159Z,0
2018-03-18T01:35:54.886Z,0
2018-03-18T01:36:54.857Z,0
2018-03-18T01:37:55.096Z,0
2018-03-18T01:38:54.823Z,0
2018-03-18T01:39:54.533Z,0
2018-03-18T01:40:55.030Z,0
2018-03-18T01:41:55.007Z,0
2018-03-18T01:42:54.988Z,0
2018-03-18T01:43:54.705Z,0
2018-03-18T01:44:54.688Z,0
2018-03-18T01:45:54.929Z,0
2018-03-18T01:46:54.895Z,0
2018-03-18T01:47:54.366Z,0
2018-03-18T01:48:54.851Z,0
2018-03-18T01:49:54.576Z,0
2018-03-18T01:50:54.809Z,0
2018-03-18T01:51:54.531Z,0
2018-03-18T01:52:54.766Z,0
2018-03-18T01:53:54.484Z,0
2018-03-18T01:54:54.726Z,0
2018-03-18T01:55:54.441Z,0
2018-03-18T01:56:54.677Z,0
2018-03-18T01:57:54.654Z,0
2018-03-18T01:58:54.640Z,0
2018-03-18T01:59:54.611Z,0
2018-03-18T02:00:54.590Z,0
2018-03-18T02:01:54.318Z,0
2018-03-18T02:02:54.547Z,0
2018-03-18T02:03:54.022Z,0
2018-03-18T02:04:54.512Z,0
2018-03-18T02:05:54.222Z,0
2018-03-18T02:06:54.201Z,0
2018-03-18T02:07:54.449Z,0
2018-03-18T02:08:54.164Z,0
2018-03-18T02:09:54.136Z,0
2018-03-18T02:10:54.383Z,0
2018-03-18T02:11:53.837Z,0
2018-03-18T02:12:54.069Z,0
2018-03-18T02:13:53.792Z,0
2018-03-18T02:14:54.289Z,0
2018-03-18T02:15:54.005Z,0
2018-03-18T02:16:54.239Z,0
2018-03-18T02:17:54.222Z,0
2018-03-18T02:18:53.939Z,0
2018-03-18T02:19:54.172Z,0
2018-03-18T02:20:53.897Z,0
2018-03-18T02:21:54.134Z,0
2018-03-18T02:22:54.106Z,0
2018-03-18T02:23:54.097Z,0
2018-03-18T02:24:54.067Z,0
2018-03-18T02:25:54.051Z,0
2018-03-18T02:26:53.765Z,0
2018-03-18T02:27:53.479Z,0
2018-03-18T02:28:53.976Z,0
2018-03-18T02:29:53.953Z,0
2018-03-18T02:30:53.948Z,0
2018-03-18T02:31:53.408Z,0
2018-03-18T02:32:53.379Z,0
2018-03-18T02:33:53.620Z,0
2018-03-18T02:34:53.861Z,0
2018-03-18T02:35:53.577Z,0
2018-03-18T02:36:53.029Z,0
2018-03-18T02:37:53.527Z,0
2018-03-18T02:38:53.512Z,0
2018-03-18T02:39:53.738Z,0
2018-03-18T02:40:53.867Z,0
2018-03-18T02:41:53.691Z,0
2018-03-18T02:42:53.686Z,0
2018-03-18T02:43:53.389Z,0
2018-03-18T02:44:53.369Z,0
2018-03-18T02:45:53.623Z,0
2018-03-18T02:46:53.588Z,0
2018-03-18T02:47:53.616Z,0
2018-03-18T02:48:53.283Z,0
2018-03-18T02:49:53.008Z,0
2018-03-18T02:50:53.504Z,0
2018-03-18T02:51:53.223Z,0
2018-03-18T02:52:53.448Z,0
2018-03-18T02:53:53.436Z,0
2018-03-18T02:54:53.148Z,0
2018-03-18T02:55:53.396Z,0
2018-03-18T02:56:53.366Z,0
2018-03-18T02:57:53.350Z,0
2018-03-18T02:58:53.061Z,0
2018-03-18T02:59:53.298Z,0
2018-03-18T03:00:53.025Z,0
2018-03-18T03:01:52.736Z,0
2018-03-18T03:02:53.245Z,0
2018-03-18T03:03:53.224Z,0
2018-03-18T03:04:53.191Z,0
2018-03-18T03:05:53.173Z,0
2018-03-18T03:06:53.145Z,0
2018-03-18T03:07:52.605Z,0
2018-03-18T03:08:52.950Z,0
2018-03-18T03:09:52.818Z,0
2018-03-18T03:10:53.058Z,0
2018-03-18T03:11:53.049Z,0
2018-03-18T03:12:52.755Z,0
2018-03-18T03:13:52.738Z,0
2018-03-18T03:14:52.710Z,0
2018-03-18T03:15:52.428Z,0
2018-03-18T03:16:52.664Z,0
2018-03-18T03:17:52.644Z,0
2018-03-18T03:18:52.883Z,0
2018-03-18T03:19:52.598Z,0
2018-03-18T03:20:52.574Z,0
2018-03-18T03:21:52.809Z,0
2018-03-18T03:22:52.526Z,0
2018-03-18T03:23:52.765Z,0
2018-03-18T03:24:52.497Z,0
2018-03-18T03:25:52.466Z,0
2018-03-18T03:26:52.184Z,0
2018-03-18T03:27:52.673Z,0
2018-03-18T03:28:52.675Z,0
2018-03-18T03:29:52.118Z,0
2018-03-18T03:30:52.364Z,0
2018-03-18T03:31:52.598Z,0
2018-03-18T03:32:52.325Z,0
2018-03-18T03:33:52.545Z,0
2018-03-18T03:34:52.521Z,0
2018-03-18T03:35:51.984Z,0
2018-03-18T03:36:51.962Z,0
2018-03-18T03:37:52.202Z,0
2018-03-18T03:38:52.436Z,0
2018-03-18T03:39:52.411Z,0
2018-03-18T03:40:52.396Z,0
2018-03-18T03:41:52.366Z,0
2018-03-18T03:42:52.093Z,0
2018-03-18T03:43:52.320Z,0
2018-03-18T03:44:51.786Z,0
2018-03-18T03:45:52.285Z,0
2018-03-18T03:46:52.257Z,0
2018-03-18T03:47:52.233Z,0
2018-03-18T03:48:52.223Z,0
2018-03-18T03:49:52.193Z,0
2018-03-18T03:50:51.914Z,0
2018-03-18T03:51:52.146Z,0
2018-03-18T03:52:51.865Z,0
2018-03-18T03:53:51.587Z,0
2018-03-18T03:54:52.083Z,0
2018-03-18T03:55:51.795Z,0
2018-03-18T03:56:51.518Z,0
2018-03-18T03:57:52.014Z,0
2018-03-18T03:58:51.736Z,0
2018-03-18T03:59:51.457Z,0
2018-03-18T04:00:51.429Z,0
2018-03-18T04:01:51.919Z,0
2018-03-18T04:02:51.648Z,0
2018-03-18T04:03:51.876Z,0
2018-03-18T04:04:51.599Z,0
2018-03-18T04:05:51.573Z,0
2018-03-18T04:06:51.298Z,0
2018-03-18T04:07:51.809Z,0
2018-03-18T04:08:51.783Z,0
2018-03-18T04:09:51.487Z,0
2018-03-18T04:10:51.208Z,0
2018-03-18T04:11:51.702Z,0
2018-03-18T04:12:51.675Z,0
2018-03-18T04:13:50.884Z,0
2018-03-18T04:14:51.379Z,0
2018-03-18T04:15:51.610Z,0
2018-03-18T04:16:51.392Z,0
2018-03-18T04:17:51.567Z,0
2018-03-18T04:18:51.546Z,0
2018-03-18T04:19:51.276Z,0
2018-03-18T04:20:51.261Z,0
2018-03-18T04:21:51.485Z,0
2018-03-18T04:22:51.461Z,0
2018-03-18T04:23:51.174Z,0
2018-03-18T04:24:51.413Z,0
2018-03-18T04:25:51.131Z,0
2018-03-18T04:26:51.110Z,0
2018-03-18T04:27:51.091Z,0
2018-03-18T04:28:51.063Z,0
2018-03-18T04:29:51.304Z,0
2018-03-18T04:30:51.019Z,0
2018-03-18T04:31:50.738Z,0
2018-03-18T04:32:51.234Z,0
2018-03-18T04:33:51.251Z,0
2018-03-18T04:34:50.930Z,0
2018-03-18T04:35:50.959Z,0
2018-03-18T04:36:51.146Z,0
2018-03-18T04:37:50.862Z,0
2018-03-18T04:38:50.845Z,0
2018-03-18T04:39:50.819Z,0
2018-03-18T04:40:50.795Z,0
2018-03-18T04:41:51.036Z,0
2018-03-18T04:42:51.008Z,0
2018-03-18T04:43:50.988Z,0
2018-03-18T04:44:50.711Z,0
2018-03-18T04:45:50.425Z,0
2018-03-18T04:46:50.666Z,0
2018-03-18T04:47:50.641Z,0
2018-03-18T04:48:50.615Z,0
2018-03-18T04:49:50.854Z,0
2018-03-18T04:50:50.571Z,0
2018-03-18T04:51:50.548Z,0
2018-03-18T04:52:50.270Z,0
2018-03-18T04:53:50.514Z,4
2018-03-18T04:54:50.745Z,4
2018-03-18T04:55:50.463Z,0
2018-03-18T04:56:50.701Z,4
2018-03-18T04:57:50.157Z,4
2018-03-18T04:58:50.396Z,4
2018-03-18T04:59:50.377Z,4
2018-03-18T05:00:50.089Z,8
2018-03-18T05:01:50.324Z,8
2018-03-18T05:02:50.048Z,8
2018-03-18T05:03:50.538Z,12
2018-03-18T05:04:50.257Z,12
2018-03-18T05:05:50.492Z,16
2018-03-18T05:06:50.213Z,20
2018-03-18T05:07:50.194Z,20
2018-03-18T05:08:50.422Z,24
2018-03-18T05:09:50.145Z,28
2018-03-18T05:10:49.868Z,32
2018-03-18T05:11:50.098Z,36
2018-03-18T05:12:50.188Z,40
2018-03-18T05:13:50.056Z,48
2018-03-18T05:14:50.052Z,52
2018-03-18T05:15:50.278Z,56
2018-03-18T05:16:49.990Z,64
2018-03-18T05:17:50.218Z,68
2018-03-18T05:18:50.200Z,76
2018-03-18T05:19:50.180Z,80
2018-03-18T05:20:50.155Z,88
2018-03-18T05:21:49.880Z,96
2018-03-18T05:22:50.109Z,104
2018-03-18T05:23:50.093Z,116
2018-03-18T05:24:49.814Z,124
2018-03-18T05:25:50.042Z,136
2018-03-18T05:26:49.757Z,148
2018-03-18T05:27:49.737Z,160
2018-03-18T05:28:49.974Z,176
2018-03-18T05:29:49.949Z,192
2018-03-18T05:30:49.679Z,208
2018-03-18T05:31:49.389Z,228
2018-03-18T05:32:49.625Z,244
2018-03-18T05:33:49.603Z,268
2018-03-18T05:34:49.577Z,292
2018-03-18T05:35:49.814Z,312
2018-03-18T05:36:49.533Z,336
2018-03-18T05:37:49.775Z,360
2018-03-18T05:38:49.743Z,384
2018-03-18T05:39:49.469Z,416
2018-03-18T05:40:49.183Z,436
2018-03-18T05:41:49.161Z,476
2018-03-18T05:42:49.401Z,504
2018-03-18T05:43:49.631Z,532
2018-03-18T05:44:49.657Z,564
2018-03-18T05:45:49.327Z,580
2018-03-18T05:46:49.562Z,632
2018-03-18T05:47:49.029Z,668
2018-03-18T05:48:49.517Z,708
2018-03-18T05:49:49.236Z,744
2018-03-18T05:50:49.496Z,780
2018-03-18T05:51:49.459Z,832
2018-03-18T05:52:49.166Z,884
2018-03-18T05:53:49.146Z,916
2018-03-18T05:54:49.129Z,948
2018-03-18T05:55:49.358Z,1000
2018-03-18T05:56:49.082Z,1024
2018-03-18T05:57:49.058Z,1040
2018-03-18T05:58:48.518Z,1080
2018-03-18T05:59:49.025Z,1148
2018-03-18T06:00:49.249Z,1172
2018-03-18T06:01:48.975Z,1212
2018-03-18T06:02:49.204Z,1208
2018-03-18T06:03:48.664Z,1312
2018-03-18T06:04:48.905Z,1356
2018-03-18T06:05:49.136Z,1388
2018-03-18T06:06:48.595Z,1452
2018-03-18T06:07:48.828Z,1508
2018-03-18T06:08:48.809Z,1568
2018-03-18T06:09:48.783Z,1612
2018-03-18T06:10:48.790Z,1652
2018-03-18T06:11:48.743Z,1704
2018-03-18T06:12:48.978Z,1744
2018-03-18T06:13:48.437Z,1808
2018-03-18T06:14:48.934Z,1828
2018-03-18T06:15:48.648Z,1892
2018-03-18T06:16:48.370Z,1912
2018-03-18T06:17:48.660Z,1988
2018-03-18T06:18:48.583Z,2008
2018-03-18T06:19:48.303Z,2044
2018-03-18T06:20:48.804Z,2072
2018-03-18T06:21:48.772Z,2084
2018-03-18T06:22:48.493Z,2100
2018-03-18T06:23:48.522Z,2116
2018-03-18T06:24:48.533Z,2128
2018-03-18T06:25:48.683Z,2176
2018-03-18T06:26:48.146Z,2220
2018-03-18T06:27:48.381Z,2252
2018-03-18T06:28:48.616Z,2276
2018-03-18T06:29:48.336Z,2300
2018-03-18T06:30:48.316Z,2332
2018-03-18T06:31:48.555Z,2348
2018-03-18T06:32:48.525Z,2388
2018-03-18T06:33:48.504Z,2420
2018-03-18T06:34:48.542Z,2440
2018-03-18T06:35:48.474Z,2460
2018-03-18T06:36:48.445Z,2480
2018-03-18T06:37:48.159Z,2500
2018-03-18T06:38:48.131Z,2540
2018-03-18T06:39:48.372Z,2556
2018-03-18T06:40:48.361Z,2576
2018-03-18T06:41:48.324Z,2616
2018-03-18T06:42:48.045Z,2660
2018-03-18T06:43:48.288Z,2692
2018-03-18T06:44:48.003Z,2712
2018-03-18T06:45:48.241Z,2728
2018-03-18T06:46:47.968Z,2764
2018-03-18T06:47:48.385Z,2796
2018-03-18T06:48:47.656Z,2844
2018-03-18T06:49:47.891Z,2896
2018-03-18T06:50:48.130Z,2948
2018-03-18T06:51:47.851Z,3000
2018-03-18T06:52:48.093Z,3044
2018-03-18T06:53:47.802Z,3072
2018-03-18T06:54:47.834Z,3112
2018-03-18T06:55:47.760Z,3164
2018-03-18T06:56:47.482Z,3228
2018-03-18T06:57:47.729Z,3288
2018-03-18T06:58:47.695Z,3352
2018-03-18T06:59:47.929Z,3420
2018-03-18T07:00:47.910Z,3488
2018-03-18T07:01:47.630Z,3548
2018-03-18T07:02:47.864Z,3612
2018-03-18T07:03:47.334Z,3680
2018-03-18T07:04:47.823Z,3752
2018-03-18T07:05:47.803Z,3828
2018-03-18T07:06:47.782Z,3896
2018-03-18T07:07:47.241Z,3960
2018-03-18T07:08:47.219Z,4032
2018-03-18T07:09:47.474Z,4096
2018-03-18T07:10:47.178Z,4156
2018-03-18T07:11:47.416Z,4220
2018-03-18T07:12:47.650Z,4292
2018-03-18T07:13:47.375Z,4368
2018-03-18T07:14:47.352Z,4440
2018-03-18T07:15:47.067Z,4504
2018-03-18T07:16:47.563Z,4568
2018-03-18T07:17:47.282Z,4624
2018-03-18T07:18:47.524Z,4668
2018-03-18T07:19:47.252Z,4728
2018-03-18T07:20:47.477Z,4796
2018-03-18T07:21:47.200Z,4852
2018-03-18T07:22:47.435Z,4888
2018-03-18T07:23:47.153Z,4924
2018-03-18T07:24:47.130Z,4964
2018-03-18T07:25:47.375Z,5004
2018-03-18T07:26:47.369Z,5056
2018-03-18T07:27:47.068Z,5088
2018-03-18T07:28:47.050Z,5116
2018-03-18T07:29:47.026Z,5144
2018-03-18T07:30:47.006Z,5168
2018-03-18T07:31:46.986Z,5184
2018-03-18T07:32:47.223Z,5220
2018-03-18T07:33:46.938Z,5244
2018-03-18T07:34:47.178Z,5244
2018-03-18T07:35:46.912Z,5264
2018-03-18T07:36:46.880Z,5280
2018-03-18T07:37:46.863Z,5296
2018-03-18T07:38:47.378Z,5312
2018-03-18T07:39:46.563Z,5324
2018-03-18T07:40:46.540Z,5340
2018-03-18T07:41:47.036Z,5364
2018-03-18T07:42:46.752Z,5376
2018-03-18T07:43:47.087Z,5396
2018-03-18T07:44:46.708Z,5448
2018-03-18T07:45:46.692Z,5504
2018-03-18T07:46:46.414Z,5536
2018-03-18T07:47:46.393Z,5576
2018-03-18T07:48:46.942Z,5592
2018-03-18T07:49:46.863Z,5620
2018-03-18T07:50:46.584Z,5656
2018-03-18T07:51:46.826Z,5684
2018-03-18T07:52:46.805Z,5736
2018-03-18T07:53:46.781Z,5768
2018-03-18T07:54:46.507Z,5768
2018-03-18T07:55:46.218Z,5808
2018-03-18T07:56:46.457Z,5820
2018-03-18T07:57:46.443Z,5844
2018-03-18T07:58:46.677Z,5896
2018-03-18T07:59:46.138Z,5940
2018-03-18T08:00:46.376Z,6012
2018-03-18T08:01:46.616Z,6088
2018-03-18T08:02:46.597Z,6104
2018-03-18T08:03:46.313Z,6204
2018-03-18T08:04:46.293Z,6324
2018-03-18T08:05:46.529Z,6380
2018-03-18T08:06:46.514Z,6420
2018-03-18T08:07:46.486Z,6480
2018-03-18T08:08:46.210Z,6520
2018-03-18T08:09:46.190Z,6552
2018-03-18T08:10:46.166Z,6616
2018-03-18T08:11:46.417Z,6688
2018-03-18T08:12:46.387Z,6748
2018-03-18T08:13:46.106Z,6836
2018-03-18T08:14:46.342Z,6924
2018-03-18T08:15:46.406Z,7012
2018-03-18T08:16:46.049Z,7072
2018-03-18T08:17:46.024Z,7152
2018-03-18T08:18:46.002Z,7292
2018-03-18T08:19:45.730Z,7380
2018-03-18T08:20:46.221Z,7464
2018-03-18T08:21:45.950Z,7508
2018-03-18T08:22:45.662Z,7544
2018-03-18T08:23:46.162Z,7588
2018-03-18T08:24:45.628Z,7652
2018-03-18T08:25:46.116Z,7684
2018-03-18T08:26:46.116Z,7860
2018-03-18T08:27:45.823Z,7960
2018-03-18T08:28:46.067Z,8008
2018-03-18T08:29:45.782Z,8092
2018-03-18T08:30:45.816Z,8172
2018-03-18T08:31:45.743Z,8184
2018-03-18T08:32:45.978Z,8160
2018-03-18T08:33:45.956Z,8248
2018-03-18T08:34:45.423Z,8244
2018-03-18T08:35:45.655Z,8252
2018-03-18T08:36:45.898Z,8232
2018-03-18T08:37:45.617Z,8204
2018-03-18T08:38:45.603Z,8164
2018-03-18T08:39:45.324Z,8216
2018-03-18T08:40:45.564Z,8084
2018-03-18T08:41:45.281Z,8080
2018-03-18T08:42:45.794Z,8172
2018-03-18T08:43:45.497Z,7992
2018-03-18T08:44:45.482Z,7924
2018-03-18T08:45:45.199Z,7844
2018-03-18T08:46:45.775Z,7784
2018-03-18T08:47:45.417Z,7756
2018-03-18T08:48:45.658Z,7764
2018-03-18T08:49:45.379Z,7656
2018-03-18T08:50:45.362Z,7744
2018-03-18T08:51:45.079Z,7776
2018-03-18T08:52:45.064Z,7784
2018-03-18T08:53:45.296Z,7720
2018-03-18T08:54:45.279Z,7704
2018-03-18T08:55:45.516Z,7712
2018-03-18T08:56:45.492Z,7704
2018-03-18T08:57:44.959Z,7656
2018-03-18T08:58:45.197Z,7644
2018-03-18T08:59:45.183Z,7632
2018-03-18T09:00:45.417Z,7632
2018-03-18T09:01:45.137Z,7632
2018-03-18T09:02:44.858Z,7668
2018-03-18T09:03:45.092Z,7664
2018-03-18T09:04:45.333Z,7624
2018-03-18T09:05:45.382Z,7644
2018-03-18T09:06:44.836Z,7696
2018-03-18T09:07:45.276Z,7688
2018-03-18T09:08:45.257Z,7676
2018-03-18T09:09:45.229Z,7684
2018-03-18T09:10:44.701Z,7688
2018-03-18T09:11:44.935Z,7724
2018-03-18T09:12:44.662Z,7700
2018-03-18T09:13:44.903Z,7808
2018-03-18T09:14:45.133Z,7852
2018-03-18T09:15:45.120Z,7904
2018-03-18T09:16:44.839Z,7916
2018-03-18T09:17:44.847Z,7948
2018-03-18T09:18:44.793Z,8000
2018-03-18T09:19:44.771Z,8072
2018-03-18T09:20:45.012Z,8072
2018-03-18T09:21:44.731Z,8072
2018-03-18T09:22:44.709Z,8084
2018-03-18T09:23:44.946Z,8052
2018-03-18T09:24:44.671Z,7944
2018-03-18T09:25:44.910Z,7976
2018-03-18T09:26:44.891Z,8000
2018-03-18T09:27:44.353Z,8036
2018-03-18T09:28:44.846Z,8000
2018-03-18T09:29:44.571Z,7984
2018-03-18T09:30:44.811Z,7984
2018-03-18T09:31:44.780Z,7984
2018-03-18T09:32:44.764Z,8008
2018-03-18T09:33:44.233Z,7956
2018-03-18T09:34:44.722Z,7864
2018-03-18T09:35:44.550Z,7832
2018-03-18T09:36:44.681Z,7840
2018-03-18T09:37:44.147Z,7960
2018-03-18T09:38:44.644Z,8020
2018-03-18T09:39:44.619Z,7772
2018-03-18T09:40:44.600Z,7852
2018-03-18T09:41:44.332Z,7844
2018-03-18T09:42:44.303Z,7856
2018-03-18T09:43:44.653Z,7864
2018-03-18T09:44:44.533Z,7916
2018-03-18T09:45:44.241Z,7908
2018-03-18T09:46:43.967Z,7952
2018-03-18T09:47:43.942Z,7920
2018-03-18T09:48:44.437Z,8168
2018-03-18T09:49:44.157Z,8284
2018-03-18T09:50:44.136Z,8412
2018-03-18T09:51:44.128Z,8484
2018-03-18T09:52:43.838Z,8604
2018-03-18T09:53:44.333Z,8788
2018-03-18T09:54:44.056Z,8752
2018-03-18T09:55:44.292Z,8776
2018-03-18T09:56:43.756Z,8844
2018-03-18T09:57:43.737Z,8876
2018-03-18T09:58:43.974Z,8900
2018-03-18T09:59:43.951Z,8988
2018-03-18T10:00:43.673Z,9068
2018-03-18T10:01:43.912Z,9148
2018-03-18T10:02:43.890Z,9252
2018-03-18T10:03:43.617Z,9372
2018-03-18T10:04:43.591Z,9540
2018-03-18T10:05:44.087Z,9844
2018-03-18T10:06:43.810Z,9832
2018-03-18T10:07:43.788Z,9880
2018-03-18T10:08:44.028Z,10076
2018-03-18T10:09:44.006Z,10328
2018-03-18T10:10:43.473Z,10504
2018-03-18T10:11:43.969Z,10828
2018-03-18T10:12:43.688Z,10524
2018-03-18T10:13:43.927Z,10792
2018-03-18T10:14:43.648Z,10696
2018-03-18T10:15:43.887Z,10628
2018-03-18T10:16:43.609Z,10616
2018-03-18T10:17:43.844Z,10716
2018-03-18T10:18:43.825Z,10836
2018-03-18T10:19:43.825Z,11024
2018-03-18T10:20:43.784Z,11020
2018-03-18T10:21:43.505Z,11224
2018-03-18T10:22:43.480Z,11316
2018-03-18T10:23:43.472Z,11192
2018-03-18T10:24:43.700Z,11044
2018-03-18T10:25:43.760Z,11444
2018-03-18T10:26:43.409Z,11584
2018-03-18T10:27:43.387Z,11668
2018-03-18T10:28:43.366Z,11656
2018-03-18T10:29:43.345Z,11588
2018-03-18T10:30:43.068Z,11656
2018-03-18T10:31:42.789Z,11568
2018-03-18T10:32:43.117Z,11576
2018-03-18T10:33:43.529Z,11292
2018-03-18T10:34:43.246Z,11580
2018-03-18T10:35:43.484Z,11584
2018-03-18T10:36:43.213Z,11536
2018-03-18T10:37:43.450Z,11484
2018-03-18T10:38:43.165Z,11740
2018-03-18T10:39:43.289Z,11744
2018-03-18T10:40:43.130Z,11740
2018-03-18T10:41:42.846Z,11628
2018-03-18T10:42:43.361Z,11700
2018-03-18T10:43:43.327Z,11808
2018-03-18T10:44:43.045Z,12120
2018-03-18T10:45:43.288Z,12032
2018-03-18T10:46:43.269Z,11532
2018-03-18T10:47:42.988Z,11680
2018-03-18T10:48:43.332Z,11624
2018-03-18T10:49:42.693Z,11444
2018-03-18T10:50:43.194Z,11404
2018-03-18T10:51:42.703Z,11232
2018-03-18T10:52:43.152Z,11328
2018-03-18T10:53:43.130Z,11792
2018-03-18T10:54:43.110Z,11848
2018-03-18T10:55:42.573Z,11960
2018-03-18T10:56:42.297Z,12008
2018-03-18T10:57:42.536Z,12008
2018-03-18T10:58:43.046Z,12028
2018-03-18T10:59:43.016Z,12028
2018-03-18T11:00:42.741Z,11992
2018-03-18T11:01:42.461Z,11884
2018-03-18T11:02:42.952Z,11876
2018-03-18T11:03:42.418Z,11848
2018-03-18T11:04:42.665Z,11708
2018-03-18T11:05:42.647Z,11668
2018-03-18T11:06:42.624Z,11752
2018-03-18T11:07:42.605Z,11608
2018-03-18T11:08:42.839Z,11624
2018-03-18T11:09:42.561Z,11684
2018-03-18T11:10:42.797Z,11768
2018-03-18T11:11:42.527Z,11900
2018-03-18T11:12:42.247Z,11984
2018-03-18T11:13:42.487Z,12056
2018-03-18T11:14:42.467Z,11912
2018-03-18T11:15:42.460Z,12152
2018-03-18T11:16:42.425Z,12204
2018-03-18T11:17:42.410Z,12284
2018-03-18T11:18:42.646Z,12304
2018-03-18T11:19:42.375Z,12376
2018-03-18T11:20:42.423Z,12340
2018-03-18T11:21:42.331Z,12268
2018-03-18T11:22:42.311Z,12216
2018-03-18T11:23:42.034Z,12176
2018-03-18T11:24:42.014Z,12136
2018-03-18T11:25:42.513Z,12068
2018-03-18T11:26:42.235Z,11980
2018-03-18T11:27:42.215Z,11844
2018-03-18T11:28:42.199Z,11728
2018-03-18T11:29:42.438Z,11752
2018-03-18T11:30:42.417Z,11628
2018-03-18T11:31:42.140Z,11584
2018-03-18T11:32:42.384Z,11520
2018-03-18T11:33:42.103Z,11488
2018-03-18T11:34:42.082Z,11468
2018-03-18T11:35:42.463Z,11444
2018-03-18T11:36:41.527Z,11432
2018-03-18T11:37:42.028Z,11440
2018-03-18T11:38:42.399Z,11432
2018-03-18T11:39:42.245Z,11408
2018-03-18T11:40:41.970Z,11392
2018-03-18T11:41:42.202Z,11356
2018-03-18T11:42:42.181Z,11328
2018-03-18T11:43:42.254Z,11316
2018-03-18T11:44:42.169Z,11292
2018-03-18T11:45:41.869Z,11264
2018-03-18T11:46:41.853Z,11264
2018-03-18T11:47:42.092Z,11300
2018-03-18T11:48:42.073Z,11352
2018-03-18T11:49:42.144Z,11388
2018-03-18T11:50:41.777Z,11408
2018-03-18T11:51:42.020Z,11428
2018-03-18T11:52:41.553Z,11492
2018-03-18T11:53:41.713Z,11552
2018-03-18T11:54:41.711Z,11604
2018-03-18T11:55:41.685Z,11676
2018-03-18T11:56:41.658Z,11752
2018-03-18T11:57:41.890Z,11824
2018-03-18T11:58:41.618Z,11868
2018-03-18T11:59:41.863Z,11916
2018-03-18T12:00:41.582Z,11964
2018-03-18T12:01:41.562Z,12032
2018-03-18T12:02:41.541Z,12084
2018-03-18T12:03:41.524Z,12144
2018-03-18T12:04:41.771Z,12196
2018-03-18T12:05:41.483Z,12292
2018-03-18T12:06:41.724Z,12352
2018-03-18T12:07:41.702Z,12388
2018-03-18T12:08:41.171Z,12412
2018-03-18T12:09:41.412Z,12440
2018-03-18T12:10:41.394Z,12508
2018-03-18T12:11:41.372Z,12540
2018-03-18T12:12:41.489Z,12564
2018-03-18T12:13:41.074Z,12604
2018-03-18T12:14:41.316Z,12628
2018-03-18T12:15:41.557Z,12664
2018-03-18T12:16:41.537Z,12696
2018-03-18T12:17:41.254Z,12724
2018-03-18T12:18:40.978Z,12752
2018-03-18T12:19:41.480Z,12792
2018-03-18T12:20:41.465Z,12840
2018-03-18T12:21:41.459Z,12944
2018-03-18T12:22:41.157Z,13032
2018-03-18T12:23:41.397Z,13136
2018-03-18T12:24:41.149Z,13236
2018-03-18T12:25:41.358Z,13296
2018-03-18T12:26:40.824Z,13340
2018-03-18T12:27:41.075Z,13372
2018-03-18T12:28:40.792Z,13456
2018-03-18T12:29:40.992Z,13528
2018-03-18T12:30:41.580Z,13560
2018-03-18T12:31:41.525Z,13592
2018-03-18T12:32:41.344Z,13608
2018-03-18T12:33:40.954Z,13640
2018-03-18T12:34:40.935Z,13664
2018-03-18T12:35:40.911Z,13648
2018-03-18T12:36:41.016Z,13660
2018-03-18T12:37:41.046Z,13664
2018-03-18T12:38:41.049Z,13716
2018-03-18T12:39:41.314Z,13764
2018-03-18T12:40:40.923Z,13756
2018-03-18T12:41:41.059Z,13752
2018-03-18T12:42:41.218Z,13796
2018-03-18T12:43:40.908Z,13800
2018-03-18T12:44:41.010Z,13816
2018-03-18T12:45:40.904Z,13800
2018-03-18T12:46:41.193Z,13804
2018-03-18T12:47:41.088Z,13784
2018-03-18T12:48:40.929Z,13756
2018-03-18T12:49:41.082Z,13720
2018-03-18T12:50:40.313Z,13668
2018-03-18T12:51:40.805Z,13624
2018-03-18T12:52:40.625Z,13588
2018-03-18T12:53:41.008Z,13540
2018-03-18T12:54:40.839Z,13492
2018-03-18T12:55:40.781Z,13496
2018-03-18T12:56:41.009Z,13480
2018-03-18T12:57:41.024Z,13456
2018-03-18T12:58:40.754Z,13452
2018-03-18T12:59:41.018Z,13432
2018-03-18T13:00:40.709Z,13392
2018-03-18T13:01:40.965Z,13336
2018-03-18T13:02:40.954Z,13284
2018-03-18T13:03:40.354Z,13244
2018-03-18T13:04:40.638Z,13208
2018-03-18T13:05:40.722Z,13184
2018-03-18T13:06:40.616Z,13164
2018-03-18T13:07:40.851Z,13132
2018-03-18T13:08:40.561Z,13100
2018-03-18T13:09:40.772Z,13064
2018-03-18T13:10:40.715Z,13036
2018-03-18T13:11:40.754Z,13008
2018-03-18T13:12:40.479Z,12980
2018-03-18T13:13:40.065Z,12948
2018-03-18T13:14:40.380Z,12940
2018-03-18T13:15:40.258Z,12904
2018-03-18T13:16:40.324Z,12892
2018-03-18T13:17:39.927Z,12872
2018-03-18T13:18:39.968Z,12864
2018-03-18T13:19:40.245Z,12844
2018-03-18T13:20:40.394Z,12820
2018-03-18T13:21:40.534Z,12820
2018-03-18T13:22:40.164Z,12792
2018-03-18T13:23:40.071Z,12768
2018-03-18T13:24:40.509Z,12752
2018-03-18T13:25:40.444Z,12704
2018-03-18T13:26:40.070Z,12656
2018-03-18T13:27:39.695Z,12608
2018-03-18T13:28:39.932Z,12552
2018-03-18T13:29:40.175Z,12504
2018-03-18T13:30:40.270Z,12472
2018-03-18T13:31:40.285Z,12440
2018-03-18T13:32:39.926Z,12428
2018-03-18T13:33:39.583Z,12412
2018-03-18T13:34:40.186Z,12388
2018-03-18T13:35:39.871Z,12352
2018-03-18T13:36:40.087Z,12312
2018-03-18T13:37:40.190Z,12292
2018-03-18T13:38:40.150Z,12264
2018-03-18T13:39:40.133Z,12244
2018-03-18T13:40:40.156Z,12232
2018-03-18T13:41:40.131Z,12244
2018-03-18T13:42:39.554Z,12224
2018-03-18T13:43:39.804Z,12204